P2 — ZCXP4 — position and weather

sailwx.info

Track history (hours):
 
Tides and Currents Weather Stations Pressure Air Temp Water Temp Dewpoint Dewpoint Depression Visibility Wind Speed Wind Dir Waves Ship Positions

P2

Last reported at 2018-Jan-18 19:30 UTC. Time now 2018-Jan-18 19:48 UTC.
Position N 17°01' W 061°46'.

Length 38 m; draft 5.5 m.

Type: Sailing vessel. MMSI: 319400000.

Date/timePositionNaut miles runAvg speedWind from/ knotsBaromVisibWave heightAir tempDewpointWater temp
2018-Jan-18 19:30N 17°01' W 061°46'0 0.0
2018-Jan-18 19:00N 17°01' W 061°46'0 0.0
2018-Jan-18 18:30N 17°01' W 061°46'0 0.0
2018-Jan-18 18:00N 17°01' W 061°46'0 0.0
2018-Jan-18 17:30N 17°01' W 061°46'0 0.0
2018-Jan-18 17:00N 17°01' W 061°46'0 0.0
2018-Jan-18 16:30N 17°01' W 061°46'0 0.0
2018-Jan-18 16:00N 17°01' W 061°46'0 0.0
2018-Jan-18 15:30N 17°01' W 061°46'0 0.0
2018-Jan-18 15:00N 17°01' W 061°46'0 0.0
2018-Jan-18 14:30N 17°01' W 061°46'0 0.0
2018-Jan-18 14:00N 17°01' W 061°46'0 0.0
2018-Jan-18 13:30N 17°01' W 061°46'0 0.0
2018-Jan-18 13:00N 17°01' W 061°46'0 0.0
2018-Jan-18 12:31N 17°01' W 061°46'0 0.0
2018-Jan-18 12:00N 17°01' W 061°46'0 0.0
2018-Jan-18 11:30N 17°01' W 061°46'0 0.0
2018-Jan-18 11:00N 17°01' W 061°46'0 0.0
2018-Jan-18 10:30N 17°01' W 061°46'0 0.0
2018-Jan-18 10:00N 17°01' W 061°46'0 0.0
2018-Jan-18 09:30N 17°01' W 061°46'0 0.0
2018-Jan-18 09:00N 17°01' W 061°46'0 0.0
2018-Jan-18 08:30N 17°01' W 061°46'0 0.0
2018-Jan-18 08:00N 17°01' W 061°46'0 0.0
2018-Jan-18 07:30N 17°01' W 061°46'0 0.0
2018-Jan-18 07:00N 17°01' W 061°46'0 0.0
2018-Jan-18 06:30N 17°01' W 061°46'0 0.0
2018-Jan-18 06:00N 17°01' W 061°46'0 0.0
2018-Jan-18 05:30N 17°01' W 061°46'0 0.0
2018-Jan-18 05:00N 17°01' W 061°46'0 0.0
2018-Jan-18 04:30N 17°01' W 061°46'0 0.0
2018-Jan-18 04:00N 17°01' W 061°46'0 0.0
2018-Jan-18 03:30N 17°01' W 061°46'0 0.0
2018-Jan-18 03:00N 17°01' W 061°46'0 0.0
2018-Jan-18 02:30N 17°01' W 061°46'0 0.0
2018-Jan-18 02:00N 17°01' W 061°46'0 0.0
2018-Jan-18 01:30N 17°01' W 061°46'0 0.0
2018-Jan-18 01:00N 17°01' W 061°46'0 0.0
2018-Jan-18 00:00N 17°01' W 061°46'0 0.0
2018-Jan-17 23:57N 17°01' W 061°46'  
2018-Jan-12 14:26N 15°44' W 061°35'61 2.4
2018-Jan-11 13:21N 14°47' W 061°14'8 0.4
2018-Jan-10 18:16N 14°40' W 061°10'3 9.5
2018-Jan-10 17:58N 14°37' W 061°08'5 9.7
2018-Jan-10 17:30N 14°35' W 061°04'3 6.2
2018-Jan-10 17:00N 14°33' W 061°02'0 0.0
2018-Jan-10 16:30N 14°33' W 061°02'0 0.0
2018-Jan-10 15:59N 14°33' W 061°02'0 0.0
2018-Jan-10 15:30N 14°33' W 061°02'0 0.0
2018-Jan-10 15:01N 14°33' W 061°02'0 0.0
2018-Jan-10 14:30N 14°33' W 061°02'0 0.0
2018-Jan-10 14:00N 14°33' W 061°02'0 0.0
2018-Jan-10 13:31N 14°33' W 061°02'0 0.0
2018-Jan-10 13:00N 14°33' W 061°02'0 0.0
2018-Jan-10 12:30N 14°33' W 061°02'0 0.0
2018-Jan-10 12:00N 14°33' W 061°02'0 0.0
2018-Jan-10 11:30N 14°33' W 061°02'0 0.0
2018-Jan-10 11:00N 14°33' W 061°02'0 0.1
2018-Jan-10 10:30N 14°33' W 061°02'0 0.1
2018-Jan-10 10:00N 14°33' W 061°02'0 0.1
2018-Jan-10 09:30N 14°33' W 061°02'0 0.1
2018-Jan-10 09:00N 14°33' W 061°02'0 0.1
2018-Jan-10 08:31N 14°33' W 061°02'0 0.0
2018-Jan-10 08:00N 14°33' W 061°02'0 0.0
2018-Jan-10 07:31N 14°33' W 061°02'0 0.0
2018-Jan-10 07:00N 14°33' W 061°02'0 0.0
2018-Jan-10 06:30N 14°33' W 061°02'0 0.0
2018-Jan-10 06:00N 14°33' W 061°02'0 0.0
2018-Jan-10 05:30N 14°33' W 061°02'0 0.0
2018-Jan-10 05:00N 14°33' W 061°02'0 0.0
2018-Jan-10 04:28N 14°33' W 061°02'0 0.1
2018-Jan-10 04:00N 14°33' W 061°02'0 0.0
2018-Jan-10 03:30N 14°33' W 061°02'0 0.0
2018-Jan-10 03:00N 14°33' W 061°02'0 0.0
2018-Jan-10 02:30N 14°33' W 061°02'0 0.0
2018-Jan-10 02:00N 14°33' W 061°02'0 0.0
2018-Jan-10 01:30N 14°33' W 061°02'0 0.0
2018-Jan-10 01:00N 14°33' W 061°02'0 0.0
2018-Jan-10 00:30N 14°33' W 061°02'0 0.0
2018-Jan-10 00:00N 14°33' W 061°02'0 0.0
2018-Jan-09 23:30N 14°33' W 061°02'0 0.1
2018-Jan-09 23:00N 14°33' W 061°02'0 0.1
2018-Jan-09 22:30N 14°33' W 061°02'0 0.0
2018-Jan-09 21:24N 14°33' W 061°02'0 0.1
2018-Jan-09 21:01N 14°33' W 061°02'0 0.0
2018-Jan-09 20:30N 14°33' W 061°02'0 0.0
2018-Jan-09 20:01N 14°33' W 061°02'0 0.0
2018-Jan-09 19:30N 14°33' W 061°02'0 0.0
2018-Jan-09 19:01N 14°33' W 061°02'1 1.8
2018-Jan-09 18:30N 14°34' W 061°02'3 5.3
2018-Jan-09 17:58N 14°36' W 061°04'0 0.3
2018-Jan-09 17:24N 14°36' W 061°04'0 0.1
2018-Jan-09 16:56N 14°36' W 061°04'0 0.1
2018-Jan-09 16:30N 14°36' W 061°04'0 0.0
2018-Jan-09 16:00N 14°36' W 061°04'0 0.0
2018-Jan-09 15:30N 14°36' W 061°04'0 0.0
2018-Jan-09 15:00N 14°36' W 061°04'0 0.1
2018-Jan-09 14:29N 14°36' W 061°04'6 6.7
2018-Jan-09 13:33N 14°30' W 061°06'1 7.8
2018-Jan-09 13:29N 14°30' W 061°06'1 1.2
2018-Jan-09 12:54N 14°29' W 061°05'0 0.0
2018-Jan-09 12:26N 14°29' W 061°05'0 0.0
2018-Jan-09 11:55N 14°29' W 061°05'0 0.0
2018-Jan-09 11:30N 14°29' W 061°05'0 0.0
2018-Jan-09 10:44N 14°29' W 061°05'0 0.0
2018-Jan-09 10:30N 14°29' W 061°05'0 0.0
2018-Jan-09 09:58N 14°29' W 061°05'0 0.0
2018-Jan-09 09:24N 14°29' W 061°05'0 0.0
2018-Jan-09 08:57N 14°29' W 061°05'0 0.0
2018-Jan-09 08:28N 14°29' W 061°05'0 0.1
2018-Jan-09 08:00N 14°29' W 061°05'0 0.1
2018-Jan-09 07:30N 14°29' W 061°05'0 0.0
2018-Jan-09 06:58N 14°29' W 061°05'0 0.0
2018-Jan-09 06:30N 14°29' W 061°05'0 0.0
2018-Jan-09 05:34N 14°29' W 061°05'0 0.0
2018-Jan-09 05:30N 14°29' W 061°05'0 0.0
2018-Jan-09 05:00N 14°29' W 061°05'0 0.1
2018-Jan-09 04:11N 14°29' W 061°05'0 0.1
2018-Jan-09 04:00N 14°29' W 061°05'0 0.0
2018-Jan-09 03:30N 14°29' W 061°05'0 0.0
2018-Jan-09 02:49N 14°29' W 061°05'0 0.0
2018-Jan-09 02:28N 14°29' W 061°05'0 0.1
2018-Jan-09 01:55N 14°29' W 061°05'0 0.1
2018-Jan-09 01:30N 14°29' W 061°05'0 0.0
2018-Jan-09 00:51N 14°29' W 061°05'0 0.0
2018-Jan-09 00:30N 14°29' W 061°05'0 0.0
2018-Jan-09 00:00N 14°29' W 061°05'0 0.0
2018-Jan-08 23:26N 14°29' W 061°05'0 0.0
2018-Jan-08 22:52N 14°29' W 061°05'0 0.0
2018-Jan-08 22:27N 14°29' W 061°05'0 0.0
2018-Jan-08 20:53N 14°29' W 061°05'0 0.2
2018-Jan-08 20:26N 14°29' W 061°05'1 2.4
2018-Jan-08 19:53N 14°28' W 061°05'  
Track history (hours):
 
Tides and Currents Weather Stations Pressure Air Temp Water Temp Dewpoint Dewpoint Depression Visibility Wind Speed Wind Dir Waves Ship Positions

P2

Last reported at 2018-Jan-18 19:30 UTC. Time now 2018-Jan-18 19:48 UTC.
Position N 17°01' W 061°46'.

Length 38 m; draft 5.5 m.

Type: Sailing vessel. MMSI: 319400000.

Date/timePositionNaut miles runAvg speedWind from/ knotsBaromVisibWave heightAir tempDewpointWater temp
2018-Jan-18 19:30N 17°01' W 061°46'0 0.0
2018-Jan-18 19:00N 17°01' W 061°46'0 0.0
2018-Jan-18 18:30N 17°01' W 061°46'0 0.0
2018-Jan-18 18:00N 17°01' W 061°46'0 0.0
2018-Jan-18 17:30N 17°01' W 061°46'0 0.0
2018-Jan-18 17:00N 17°01' W 061°46'0 0.0
2018-Jan-18 16:30N 17°01' W 061°46'0 0.0
2018-Jan-18 16:00N 17°01' W 061°46'0 0.0
2018-Jan-18 15:30N 17°01' W 061°46'0 0.0
2018-Jan-18 15:00N 17°01' W 061°46'0 0.0
2018-Jan-18 14:30N 17°01' W 061°46'0 0.0
2018-Jan-18 14:00N 17°01' W 061°46'0 0.0
2018-Jan-18 13:30N 17°01' W 061°46'0 0.0
2018-Jan-18 13:00N 17°01' W 061°46'0 0.0
2018-Jan-18 12:31N 17°01' W 061°46'0 0.0
2018-Jan-18 12:00N 17°01' W 061°46'0 0.0
2018-Jan-18 11:30N 17°01' W 061°46'0 0.0
2018-Jan-18 11:00N 17°01' W 061°46'0 0.0
2018-Jan-18 10:30N 17°01' W 061°46'0 0.0
2018-Jan-18 10:00N 17°01' W 061°46'0 0.0
2018-Jan-18 09:30N 17°01' W 061°46'0 0.0
2018-Jan-18 09:00N 17°01' W 061°46'0 0.0
2018-Jan-18 08:30N 17°01' W 061°46'0 0.0
2018-Jan-18 08:00N 17°01' W 061°46'0 0.0
2018-Jan-18 07:30N 17°01' W 061°46'0 0.0
2018-Jan-18 07:00N 17°01' W 061°46'0 0.0
2018-Jan-18 06:30N 17°01' W 061°46'0 0.0
2018-Jan-18 06:00N 17°01' W 061°46'0 0.0
2018-Jan-18 05:30N 17°01' W 061°46'0 0.0
2018-Jan-18 05:00N 17°01' W 061°46'0 0.0
2018-Jan-18 04:30N 17°01' W 061°46'0 0.0
2018-Jan-18 04:00N 17°01' W 061°46'0 0.0
2018-Jan-18 03:30N 17°01' W 061°46'0 0.0
2018-Jan-18 03:00N 17°01' W 061°46'0 0.0
2018-Jan-18 02:30N 17°01' W 061°46'0 0.0
2018-Jan-18 02:00N 17°01' W 061°46'0 0.0
2018-Jan-18 01:30N 17°01' W 061°46'0 0.0
2018-Jan-18 01:00N 17°01' W 061°46'0 0.0
2018-Jan-18 00:00N 17°01' W 061°46'0 0.0
2018-Jan-17 23:57N 17°01' W 061°46'  
2018-Jan-12 14:26N 15°44' W 061°35'61 2.4
2018-Jan-11 13:21N 14°47' W 061°14'8 0.4
2018-Jan-10 18:16N 14°40' W 061°10'3 9.5
2018-Jan-10 17:58N 14°37' W 061°08'5 9.7
2018-Jan-10 17:30N 14°35' W 061°04'3 6.2
2018-Jan-10 17:00N 14°33' W 061°02'0 0.0
2018-Jan-10 16:30N 14°33' W 061°02'0 0.0
2018-Jan-10 15:59N 14°33' W 061°02'0 0.0
2018-Jan-10 15:30N 14°33' W 061°02'0 0.0
2018-Jan-10 15:01N 14°33' W 061°02'0 0.0
2018-Jan-10 14:30N 14°33' W 061°02'0 0.0
2018-Jan-10 14:00N 14°33' W 061°02'0 0.0
2018-Jan-10 13:31N 14°33' W 061°02'0 0.0
2018-Jan-10 13:00N 14°33' W 061°02'0 0.0
2018-Jan-10 12:30N 14°33' W 061°02'0 0.0
2018-Jan-10 12:00N 14°33' W 061°02'0 0.0
2018-Jan-10 11:30N 14°33' W 061°02'0 0.0
2018-Jan-10 11:00N 14°33' W 061°02'0 0.1
2018-Jan-10 10:30N 14°33' W 061°02'0 0.1
2018-Jan-10 10:00N 14°33' W 061°02'0 0.1
2018-Jan-10 09:30N 14°33' W 061°02'0 0.1
2018-Jan-10 09:00N 14°33' W 061°02'0 0.1
2018-Jan-10 08:31N 14°33' W 061°02'0 0.0
2018-Jan-10 08:00N 14°33' W 061°02'0 0.0
2018-Jan-10 07:31N 14°33' W 061°02'0 0.0
2018-Jan-10 07:00N 14°33' W 061°02'0 0.0
2018-Jan-10 06:30N 14°33' W 061°02'0 0.0
2018-Jan-10 06:00N 14°33' W 061°02'0 0.0
2018-Jan-10 05:30N 14°33' W 061°02'0 0.0
2018-Jan-10 05:00N 14°33' W 061°02'0 0.0
2018-Jan-10 04:28N 14°33' W 061°02'0 0.1
2018-Jan-10 04:00N 14°33' W 061°02'0 0.0
2018-Jan-10 03:30N 14°33' W 061°02'0 0.0
2018-Jan-10 03:00N 14°33' W 061°02'0 0.0
2018-Jan-10 02:30N 14°33' W 061°02'0 0.0
2018-Jan-10 02:00N 14°33' W 061°02'0 0.0
2018-Jan-10 01:30N 14°33' W 061°02'0 0.0
2018-Jan-10 01:00N 14°33' W 061°02'0 0.0
2018-Jan-10 00:30N 14°33' W 061°02'0 0.0
2018-Jan-10 00:00N 14°33' W 061°02'0 0.0
2018-Jan-09 23:30N 14°33' W 061°02'0 0.1
2018-Jan-09 23:00N 14°33' W 061°02'0 0.1
2018-Jan-09 22:30N 14°33' W 061°02'0 0.0
2018-Jan-09 21:24N 14°33' W 061°02'0 0.1
2018-Jan-09 21:01N 14°33' W 061°02'0 0.0
2018-Jan-09 20:30N 14°33' W 061°02'0 0.0
2018-Jan-09 20:01N 14°33' W 061°02'0 0.0
2018-Jan-09 19:30N 14°33' W 061°02'0 0.0
2018-Jan-09 19:01N 14°33' W 061°02'1 1.8
2018-Jan-09 18:30N 14°34' W 061°02'3 5.3
2018-Jan-09 17:58N 14°36' W 061°04'0 0.3
2018-Jan-09 17:24N 14°36' W 061°04'0 0.1
2018-Jan-09 16:56N 14°36' W 061°04'0 0.1
2018-Jan-09 16:30N 14°36' W 061°04'0 0.0
2018-Jan-09 16:00N 14°36' W 061°04'0 0.0
2018-Jan-09 15:30N 14°36' W 061°04'0 0.0
2018-Jan-09 15:00N 14°36' W 061°04'0 0.1
2018-Jan-09 14:29N 14°36' W 061°04'6 6.7
2018-Jan-09 13:33N 14°30' W 061°06'1 7.8
2018-Jan-09 13:29N 14°30' W 061°06'1 1.2
2018-Jan-09 12:54N 14°29' W 061°05'0 0.0
2018-Jan-09 12:26N 14°29' W 061°05'0 0.0
2018-Jan-09 11:55N 14°29' W 061°05'0 0.0
2018-Jan-09 11:30N 14°29' W 061°05'0 0.0
2018-Jan-09 10:44N 14°29' W 061°05'0 0.0
2018-Jan-09 10:30N 14°29' W 061°05'0 0.0
2018-Jan-09 09:58N 14°29' W 061°05'0 0.0
2018-Jan-09 09:24N 14°29' W 061°05'0 0.0
2018-Jan-09 08:57N 14°29' W 061°05'0 0.0
2018-Jan-09 08:28N 14°29' W 061°05'0 0.1
2018-Jan-09 08:00N 14°29' W 061°05'0 0.1
2018-Jan-09 07:30N 14°29' W 061°05'0 0.0
2018-Jan-09 06:58N 14°29' W 061°05'0 0.0
2018-Jan-09 06:30N 14°29' W 061°05'0 0.0
2018-Jan-09 05:34N 14°29' W 061°05'0 0.0
2018-Jan-09 05:30N 14°29' W 061°05'0 0.0
2018-Jan-09 05:00N 14°29' W 061°05'0 0.1
2018-Jan-09 04:11N 14°29' W 061°05'0 0.1
2018-Jan-09 04:00N 14°29' W 061°05'0 0.0
2018-Jan-09 03:30N 14°29' W 061°05'0 0.0
2018-Jan-09 02:49N 14°29' W 061°05'0 0.0
2018-Jan-09 02:28N 14°29' W 061°05'0 0.1
2018-Jan-09 01:55N 14°29' W 061°05'0 0.1
2018-Jan-09 01:30N 14°29' W 061°05'0 0.0
2018-Jan-09 00:51N 14°29' W 061°05'0 0.0
2018-Jan-09 00:30N 14°29' W 061°05'0 0.0
2018-Jan-09 00:00N 14°29' W 061°05'0 0.0
2018-Jan-08 23:26N 14°29' W 061°05'0 0.0
2018-Jan-08 22:52N 14°29' W 061°05'0 0.0
2018-Jan-08 22:27N 14°29' W 061°05'0 0.0
2018-Jan-08 20:53N 14°29' W 061°05'0 0.2
2018-Jan-08 20:26N 14°29' W 061°05'1 2.4
2018-Jan-08 19:53N 14°28' W 061°05'  

Dump ship's entire track history